sensor_id;sensor_type;location;lat;lon;timestamp;P1;durP1;ratioP1;P2;durP2;ratioP2
33184;SDS011;19550;42.872;25.494;2023-04-24T00:01:01;19.33;;;8.75;;
33184;SDS011;19550;42.872;25.494;2023-04-24T00:03:29;16.40;;;8.32;;
33184;SDS011;19550;42.872;25.494;2023-04-24T00:05:58;13.57;;;8.13;;
33184;SDS011;19550;42.872;25.494;2023-04-24T00:08:26;14.68;;;8.45;;
33184;SDS011;19550;42.872;25.494;2023-04-24T00:10:52;14.13;;;9.20;;
33184;SDS011;19550;42.872;25.494;2023-04-24T00:13:19;11.25;;;8.50;;
33184;SDS011;19550;42.872;25.494;2023-04-24T00:15:46;17.17;;;8.65;;
33184;SDS011;19550;42.872;25.494;2023-04-24T00:18:13;14.40;;;7.75;;
33184;SDS011;19550;42.872;25.494;2023-04-24T00:20:41;14.48;;;8.82;;
33184;SDS011;19550;42.872;25.494;2023-04-24T00:23:08;13.45;;;8.90;;
33184;SDS011;19550;42.872;25.494;2023-04-24T00:25:35;17.27;;;8.13;;
33184;SDS011;19550;42.872;25.494;2023-04-24T00:28:02;16.13;;;8.13;;
33184;SDS011;19550;42.872;25.494;2023-04-24T00:30:29;12.50;;;8.10;;
33184;SDS011;19550;42.872;25.494;2023-04-24T00:32:57;13.23;;;7.88;;
33184;SDS011;19550;42.872;25.494;2023-04-24T00:35:24;15.85;;;8.43;;
33184;SDS011;19550;42.872;25.494;2023-04-24T00:37:52;17.83;;;8.35;;
33184;SDS011;19550;42.872;25.494;2023-04-24T00:40:19;16.92;;;8.05;;
33184;SDS011;19550;42.872;25.494;2023-04-24T00:42:46;15.40;;;8.20;;
33184;SDS011;19550;42.872;25.494;2023-04-24T00:45:12;14.27;;;9.00;;
33184;SDS011;19550;42.872;25.494;2023-04-24T00:47:40;15.15;;;7.65;;
33184;SDS011;19550;42.872;25.494;2023-04-24T00:50:08;18.65;;;8.05;;
33184;SDS011;19550;42.872;25.494;2023-04-24T00:52:36;15.18;;;8.70;;
33184;SDS011;19550;42.872;25.494;2023-04-24T00:55:07;14.73;;;8.20;;
33184;SDS011;19550;42.872;25.494;2023-04-24T00:57:35;22.35;;;8.55;;
33184;SDS011;19550;42.872;25.494;2023-04-24T01:00:03;15.32;;;7.97;;
33184;SDS011;19550;42.872;25.494;2023-04-24T01:02:37;12.05;;;7.75;;
33184;SDS011;19550;42.872;25.494;2023-04-24T01:05:06;13.88;;;8.32;;
33184;SDS011;19550;42.872;25.494;2023-04-24T01:07:34;15.82;;;8.98;;
33184;SDS011;19550;42.872;25.494;2023-04-24T01:10:02;12.40;;;8.25;;
33184;SDS011;19550;42.872;25.494;2023-04-24T01:12:30;19.35;;;8.07;;
33184;SDS011;19550;42.872;25.494;2023-04-24T01:14:58;15.07;;;7.45;;
33184;SDS011;19550;42.872;25.494;2023-04-24T01:17:25;12.02;;;8.02;;
33184;SDS011;19550;42.872;25.494;2023-04-24T01:19:52;12.10;;;7.50;;
33184;SDS011;19550;42.872;25.494;2023-04-24T01:22:23;14.02;;;7.30;;
33184;SDS011;19550;42.872;25.494;2023-04-24T01:24:50;13.73;;;7.97;;
33184;SDS011;19550;42.872;25.494;2023-04-24T01:27:17;16.95;;;7.72;;
33184;SDS011;19550;42.872;25.494;2023-04-24T01:29:44;13.32;;;7.72;;
33184;SDS011;19550;42.872;25.494;2023-04-24T01:32:12;12.82;;;7.15;;
33184;SDS011;19550;42.872;25.494;2023-04-24T01:34:40;10.38;;;6.70;;
33184;SDS011;19550;42.872;25.494;2023-04-24T01:37:07;13.05;;;7.35;;
33184;SDS011;19550;42.872;25.494;2023-04-24T01:39:35;9.65;;;6.90;;
33184;SDS011;19550;42.872;25.494;2023-04-24T01:42:02;12.77;;;7.20;;
33184;SDS011;19550;42.872;25.494;2023-04-24T01:44:29;11.13;;;6.95;;
33184;SDS011;19550;42.872;25.494;2023-04-24T01:46:57;16.83;;;7.18;;
33184;SDS011;19550;42.872;25.494;2023-04-24T01:49:23;12.98;;;7.65;;
33184;SDS011;19550;42.872;25.494;2023-04-24T01:51:50;16.10;;;8.25;;
33184;SDS011;19550;42.872;25.494;2023-04-24T01:54:17;13.15;;;7.00;;
33184;SDS011;19550;42.872;25.494;2023-04-24T01:56:46;15.60;;;7.70;;
33184;SDS011;19550;42.872;25.494;2023-04-24T01:59:13;12.73;;;7.50;;
33184;SDS011;19550;42.872;25.494;2023-04-24T02:01:43;17.33;;;6.75;;
33184;SDS011;19550;42.872;25.494;2023-04-24T02:04:09;10.05;;;7.22;;
33184;SDS011;19550;42.872;25.494;2023-04-24T02:06:36;13.50;;;7.13;;
33184;SDS011;19550;42.872;25.494;2023-04-24T02:09:03;12.13;;;7.80;;
33184;SDS011;19550;42.872;25.494;2023-04-24T02:11:30;12.05;;;7.82;;
33184;SDS011;19550;42.872;25.494;2023-04-24T02:13:58;12.45;;;7.55;;
33184;SDS011;19550;42.872;25.494;2023-04-24T02:16:25;14.02;;;8.07;;
33184;SDS011;19550;42.872;25.494;2023-04-24T02:18:52;18.48;;;7.32;;
33184;SDS011;19550;42.872;25.494;2023-04-24T02:21:19;14.02;;;7.65;;
33184;SDS011;19550;42.872;25.494;2023-04-24T02:23:45;13.20;;;7.63;;
33184;SDS011;19550;42.872;25.494;2023-04-24T02:26:12;12.00;;;7.50;;
33184;SDS011;19550;42.872;25.494;2023-04-24T02:28:40;10.02;;;7.45;;
33184;SDS011;19550;42.872;25.494;2023-04-24T02:31:08;10.45;;;6.78;;
33184;SDS011;19550;42.872;25.494;2023-04-24T02:33:35;14.65;;;6.93;;
33184;SDS011;19550;42.872;25.494;2023-04-24T02:36:02;14.93;;;7.00;;
33184;SDS011;19550;42.872;25.494;2023-04-24T02:38:29;12.10;;;6.97;;
33184;SDS011;19550;42.872;25.494;2023-04-24T02:40:56;16.67;;;7.38;;
33184;SDS011;19550;42.872;25.494;2023-04-24T02:43:22;13.05;;;6.85;;
33184;SDS011;19550;42.872;25.494;2023-04-24T02:45:49;13.98;;;7.53;;
33184;SDS011;19550;42.872;25.494;2023-04-24T02:48:17;11.60;;;6.55;;
33184;SDS011;19550;42.872;25.494;2023-04-24T02:50:45;20.73;;;7.95;;
33184;SDS011;19550;42.872;25.494;2023-04-24T02:53:12;26.80;;;11.15;;
33184;SDS011;19550;42.872;25.494;2023-04-24T02:55:39;17.08;;;7.82;;
33184;SDS011;19550;42.872;25.494;2023-04-24T02:58:06;12.98;;;7.07;;
33184;SDS011;19550;42.872;25.494;2023-04-24T03:00:33;16.05;;;6.95;;
33184;SDS011;19550;42.872;25.494;2023-04-24T03:03:00;15.73;;;7.50;;
33184;SDS011;19550;42.872;25.494;2023-04-24T03:05:29;13.15;;;7.80;;
33184;SDS011;19550;42.872;25.494;2023-04-24T03:07:56;30.58;;;12.60;;
33184;SDS011;19550;42.872;25.494;2023-04-24T03:10:23;26.48;;;9.65;;
33184;SDS011;19550;42.872;25.494;2023-04-24T03:12:50;26.50;;;10.93;;
33184;SDS011;19550;42.872;25.494;2023-04-24T03:15:17;43.20;;;17.33;;
33184;SDS011;19550;42.872;25.494;2023-04-24T03:17:44;32.75;;;14.07;;
33184;SDS011;19550;42.872;25.494;2023-04-24T03:20:11;70.82;;;24.42;;
33184;SDS011;19550;42.872;25.494;2023-04-24T03:22:39;105.22;;;32.00;;
33184;SDS011;19550;42.872;25.494;2023-04-24T03:25:06;70.03;;;24.85;;
33184;SDS011;19550;42.872;25.494;2023-04-24T03:27:34;64.65;;;25.40;;
33184;SDS011;19550;42.872;25.494;2023-04-24T03:30:01;62.17;;;22.85;;
33184;SDS011;19550;42.872;25.494;2023-04-24T03:32:28;47.75;;;21.45;;
33184;SDS011;19550;42.872;25.494;2023-04-24T03:34:57;57.75;;;24.23;;
33184;SDS011;19550;42.872;25.494;2023-04-24T03:37:24;75.53;;;28.42;;
33184;SDS011;19550;42.872;25.494;2023-04-24T03:39:52;98.50;;;35.55;;
33184;SDS011;19550;42.872;25.494;2023-04-24T03:42:19;91.00;;;37.20;;
33184;SDS011;19550;42.872;25.494;2023-04-24T03:44:46;36.03;;;20.25;;
33184;SDS011;19550;42.872;25.494;2023-04-24T03:47:13;28.10;;;17.50;;
33184;SDS011;19550;42.872;25.494;2023-04-24T03:49:40;35.30;;;17.60;;
33184;SDS011;19550;42.872;25.494;2023-04-24T03:52:06;44.00;;;23.20;;
33184;SDS011;19550;42.872;25.494;2023-04-24T03:54:33;37.40;;;20.17;;
33184;SDS011;19550;42.872;25.494;2023-04-24T03:57:01;76.85;;;32.30;;
33184;SDS011;19550;42.872;25.494;2023-04-24T03:59:29;78.45;;;33.30;;
33184;SDS011;19550;42.872;25.494;2023-04-24T04:01:56;72.55;;;32.10;;
33184;SDS011;19550;42.872;25.494;2023-04-24T04:04:23;71.07;;;43.53;;
33184;SDS011;19550;42.872;25.494;2023-04-24T04:06:50;73.60;;;47.67;;
33184;SDS011;19550;42.872;25.494;2023-04-24T04:09:17;65.95;;;42.92;;
33184;SDS011;19550;42.872;25.494;2023-04-24T04:11:44;65.20;;;40.03;;
33184;SDS011;19550;42.872;25.494;2023-04-24T04:14:12;66.97;;;41.70;;
33184;SDS011;19550;42.872;25.494;2023-04-24T04:16:39;71.65;;;45.35;;
33184;SDS011;19550;42.872;25.494;2023-04-24T04:19:05;59.33;;;40.45;;
33184;SDS011;19550;42.872;25.494;2023-04-24T04:21:32;68.97;;;44.15;;
33184;SDS011;19550;42.872;25.494;2023-04-24T04:23:59;67.10;;;45.10;;
33184;SDS011;19550;42.872;25.494;2023-04-24T04:26:26;72.03;;;50.78;;
33184;SDS011;19550;42.872;25.494;2023-04-24T04:28:52;69.65;;;43.40;;
33184;SDS011;19550;42.872;25.494;2023-04-24T04:31:21;74.57;;;42.47;;
33184;SDS011;19550;42.872;25.494;2023-04-24T04:33:48;69.38;;;42.90;;
33184;SDS011;19550;42.872;25.494;2023-04-24T04:36:15;60.15;;;38.75;;
33184;SDS011;19550;42.872;25.494;2023-04-24T04:38:42;77.75;;;40.30;;
33184;SDS011;19550;42.872;25.494;2023-04-24T04:41:09;55.67;;;35.22;;
33184;SDS011;19550;42.872;25.494;2023-04-24T04:43:37;50.47;;;30.55;;
33184;SDS011;19550;42.872;25.494;2023-04-24T04:46:05;48.70;;;29.63;;
33184;SDS011;19550;42.872;25.494;2023-04-24T04:48:35;41.92;;;27.27;;
33184;SDS011;19550;42.872;25.494;2023-04-24T04:51:01;40.85;;;24.52;;
33184;SDS011;19550;42.872;25.494;2023-04-24T04:53:28;37.20;;;24.48;;
33184;SDS011;19550;42.872;25.494;2023-04-24T04:55:55;46.05;;;23.75;;
33184;SDS011;19550;42.872;25.494;2023-04-24T04:58:22;44.10;;;28.38;;
33184;SDS011;19550;42.872;25.494;2023-04-24T05:00:49;47.65;;;28.73;;
33184;SDS011;19550;42.872;25.494;2023-04-24T05:03:17;50.30;;;29.75;;
33184;SDS011;19550;42.872;25.494;2023-04-24T05:05:45;69.22;;;33.83;;
33184;SDS011;19550;42.872;25.494;2023-04-24T05:08:12;78.50;;;35.88;;
33184;SDS011;19550;42.872;25.494;2023-04-24T05:10:39;68.72;;;37.30;;
33184;SDS011;19550;42.872;25.494;2023-04-24T05:13:06;68.28;;;36.58;;
33184;SDS011;19550;42.872;25.494;2023-04-24T05:15:32;62.80;;;35.58;;
33184;SDS011;19550;42.872;25.494;2023-04-24T05:17:59;66.40;;;35.90;;
33184;SDS011;19550;42.872;25.494;2023-04-24T05:20:26;60.83;;;34.15;;
33184;SDS011;19550;42.872;25.494;2023-04-24T05:22:54;62.58;;;34.30;;
33184;SDS011;19550;42.872;25.494;2023-04-24T05:25:21;64.22;;;34.15;;
33184;SDS011;19550;42.872;25.494;2023-04-24T05:27:48;67.03;;;35.25;;
33184;SDS011;19550;42.872;25.494;2023-04-24T05:30:15;77.30;;;36.95;;
33184;SDS011;19550;42.872;25.494;2023-04-24T05:32:41;101.53;;;45.28;;
33184;SDS011;19550;42.872;25.494;2023-04-24T05:35:08;70.90;;;35.95;;
33184;SDS011;19550;42.872;25.494;2023-04-24T05:37:35;55.70;;;33.80;;
33184;SDS011;19550;42.872;25.494;2023-04-24T05:40:04;56.13;;;33.78;;
33184;SDS011;19550;42.872;25.494;2023-04-24T05:42:31;52.53;;;31.88;;
33184;SDS011;19550;42.872;25.494;2023-04-24T05:44:58;51.50;;;28.77;;
33184;SDS011;19550;42.872;25.494;2023-04-24T05:47:25;54.50;;;29.63;;
33184;SDS011;19550;42.872;25.494;2023-04-24T05:49:52;48.65;;;28.27;;
33184;SDS011;19550;42.872;25.494;2023-04-24T05:52:19;45.60;;;29.25;;
33184;SDS011;19550;42.872;25.494;2023-04-24T05:54:46;59.10;;;33.78;;
33184;SDS011;19550;42.872;25.494;2023-04-24T05:57:14;54.50;;;35.22;;
33184;SDS011;19550;42.872;25.494;2023-04-24T05:59:41;50.22;;;32.30;;
33184;SDS011;19550;42.872;25.494;2023-04-24T06:02:07;39.22;;;24.60;;
33184;SDS011;19550;42.872;25.494;2023-04-24T06:04:34;31.77;;;20.75;;
33184;SDS011;19550;42.872;25.494;2023-04-24T06:07:01;31.33;;;19.55;;
33184;SDS011;19550;42.872;25.494;2023-04-24T06:09:28;30.45;;;17.80;;
33184;SDS011;19550;42.872;25.494;2023-04-24T06:11:55;35.83;;;16.75;;
33184;SDS011;19550;42.872;25.494;2023-04-24T06:14:23;32.33;;;17.58;;
33184;SDS011;19550;42.872;25.494;2023-04-24T06:16:50;20.25;;;12.07;;
33184;SDS011;19550;42.872;25.494;2023-04-24T06:19:17;21.98;;;11.27;;
33184;SDS011;19550;42.872;25.494;2023-04-24T06:21:44;18.23;;;11.02;;
33184;SDS011;19550;42.872;25.494;2023-04-24T06:24:13;19.73;;;9.73;;
33184;SDS011;19550;42.872;25.494;2023-04-24T06:26:41;15.70;;;9.32;;
33184;SDS011;19550;42.872;25.494;2023-04-24T06:29:08;18.58;;;9.98;;
33184;SDS011;19550;42.872;25.494;2023-04-24T06:31:36;17.02;;;9.70;;
33184;SDS011;19550;42.872;25.494;2023-04-24T06:34:03;15.05;;;9.23;;
33184;SDS011;19550;42.872;25.494;2023-04-24T06:36:30;14.98;;;9.13;;
33184;SDS011;19550;42.872;25.494;2023-04-24T06:38:57;26.15;;;9.98;;
33184;SDS011;19550;42.872;25.494;2023-04-24T06:41:24;20.05;;;9.63;;
33184;SDS011;19550;42.872;25.494;2023-04-24T06:43:51;17.52;;;9.93;;
33184;SDS011;19550;42.872;25.494;2023-04-24T06:46:18;20.05;;;10.25;;
33184;SDS011;19550;42.872;25.494;2023-04-24T06:48:48;18.70;;;9.40;;
33184;SDS011;19550;42.872;25.494;2023-04-24T06:51:15;15.35;;;9.13;;
33184;SDS011;19550;42.872;25.494;2023-04-24T06:53:43;18.75;;;8.23;;
33184;SDS011;19550;42.872;25.494;2023-04-24T06:56:09;11.13;;;6.10;;
33184;SDS011;19550;42.872;25.494;2023-04-24T06:58:36;9.93;;;5.75;;
33184;SDS011;19550;42.872;25.494;2023-04-24T07:01:03;11.57;;;4.82;;
33184;SDS011;19550;42.872;25.494;2023-04-24T07:03:30;9.88;;;5.55;;
33184;SDS011;19550;42.872;25.494;2023-04-24T07:05:58;11.38;;;5.78;;
33184;SDS011;19550;42.872;25.494;2023-04-24T07:08:25;10.82;;;6.15;;
33184;SDS011;19550;42.872;25.494;2023-04-24T07:10:52;9.73;;;5.97;;
33184;SDS011;19550;42.872;25.494;2023-04-24T07:13:19;12.80;;;5.25;;
33184;SDS011;19550;42.872;25.494;2023-04-24T07:15:45;8.77;;;5.53;;
33184;SDS011;19550;42.872;25.494;2023-04-24T07:18:14;11.60;;;5.30;;
33184;SDS011;19550;42.872;25.494;2023-04-24T07:20:42;10.02;;;6.25;;
33184;SDS011;19550;42.872;25.494;2023-04-24T07:23:10;7.53;;;5.32;;
33184;SDS011;19550;42.872;25.494;2023-04-24T07:25:37;9.40;;;5.10;;
33184;SDS011;19550;42.872;25.494;2023-04-24T07:28:04;7.03;;;4.70;;
33184;SDS011;19550;42.872;25.494;2023-04-24T07:30:31;10.52;;;5.90;;
33184;SDS011;19550;42.872;25.494;2023-04-24T07:32:58;9.07;;;5.47;;
33184;SDS011;19550;42.872;25.494;2023-04-24T07:35:26;7.13;;;4.13;;
33184;SDS011;19550;42.872;25.494;2023-04-24T07:37:53;6.68;;;5.32;;
33184;SDS011;19550;42.872;25.494;2023-04-24T07:40:21;6.88;;;4.63;;
33184;SDS011;19550;42.872;25.494;2023-04-24T07:42:48;4.93;;;4.13;;
33184;SDS011;19550;42.872;25.494;2023-04-24T07:45:15;10.27;;;5.63;;
33184;SDS011;19550;42.872;25.494;2023-04-24T07:47:42;9.15;;;6.15;;
33184;SDS011;19550;42.872;25.494;2023-04-24T07:50:10;6.85;;;5.03;;
33184;SDS011;19550;42.872;25.494;2023-04-24T07:52:37;11.20;;;6.32;;
33184;SDS011;19550;42.872;25.494;2023-04-24T07:55:04;7.70;;;5.43;;
33184;SDS011;19550;42.872;25.494;2023-04-24T07:57:33;10.20;;;6.10;;
33184;SDS011;19550;42.872;25.494;2023-04-24T08:00:00;9.68;;;5.35;;
33184;SDS011;19550;42.872;25.494;2023-04-24T08:02:27;6.32;;;5.07;;
33184;SDS011;19550;42.872;25.494;2023-04-24T08:04:54;6.53;;;4.93;;
33184;SDS011;19550;42.872;25.494;2023-04-24T08:07:21;7.60;;;5.45;;
33184;SDS011;19550;42.872;25.494;2023-04-24T08:09:49;7.13;;;5.22;;
33184;SDS011;19550;42.872;25.494;2023-04-24T08:12:16;9.18;;;4.82;;
33184;SDS011;19550;42.872;25.494;2023-04-24T08:14:44;11.40;;;5.28;;
33184;SDS011;19550;42.872;25.494;2023-04-24T08:17:11;15.50;;;5.38;;
33184;SDS011;19550;42.872;25.494;2023-04-24T08:19:39;9.63;;;5.78;;
33184;SDS011;19550;42.872;25.494;2023-04-24T08:24:34;8.77;;;5.30;;
33184;SDS011;19550;42.872;25.494;2023-04-24T08:27:01;9.93;;;6.13;;
33184;SDS011;19550;42.872;25.494;2023-04-24T08:29:28;7.63;;;5.28;;
33184;SDS011;19550;42.872;25.494;2023-04-24T08:31:56;10.63;;;5.57;;
33184;SDS011;19550;42.872;25.494;2023-04-24T08:34:23;8.20;;;5.40;;
33184;SDS011;19550;42.872;25.494;2023-04-24T08:36:50;8.13;;;5.70;;
33184;SDS011;19550;42.872;25.494;2023-04-24T08:39:17;7.25;;;5.72;;
33184;SDS011;19550;42.872;25.494;2023-04-24T08:41:44;9.95;;;4.65;;
33184;SDS011;19550;42.872;25.494;2023-04-24T08:44:12;7.85;;;5.30;;
33184;SDS011;19550;42.872;25.494;2023-04-24T08:46:41;9.63;;;5.20;;
33184;SDS011;19550;42.872;25.494;2023-04-24T08:49:10;9.38;;;5.53;;
33184;SDS011;19550;42.872;25.494;2023-04-24T08:51:38;6.50;;;5.40;;
33184;SDS011;19550;42.872;25.494;2023-04-24T08:54:06;17.10;;;9.48;;
33184;SDS011;19550;42.872;25.494;2023-04-24T08:56:33;15.68;;;11.45;;
33184;SDS011;19550;42.872;25.494;2023-04-24T08:59:04;11.25;;;7.07;;
33184;SDS011;19550;42.872;25.494;2023-04-24T09:01:32;11.77;;;8.43;;
33184;SDS011;19550;42.872;25.494;2023-04-24T09:04:00;15.35;;;11.52;;
33184;SDS011;19550;42.872;25.494;2023-04-24T09:06:30;14.88;;;11.43;;
33184;SDS011;19550;42.872;25.494;2023-04-24T09:08:58;9.90;;;6.45;;
33184;SDS011;19550;42.872;25.494;2023-04-24T09:11:27;12.38;;;7.75;;
33184;SDS011;19550;42.872;25.494;2023-04-24T09:13:54;10.70;;;7.80;;
33184;SDS011;19550;42.872;25.494;2023-04-24T09:16:22;11.43;;;7.43;;
33184;SDS011;19550;42.872;25.494;2023-04-24T09:18:51;7.00;;;5.65;;
33184;SDS011;19550;42.872;25.494;2023-04-24T09:21:19;12.27;;;7.55;;
33184;SDS011;19550;42.872;25.494;2023-04-24T09:23:48;11.75;;;7.75;;
33184;SDS011;19550;42.872;25.494;2023-04-24T09:26:24;14.68;;;6.47;;
33184;SDS011;19550;42.872;25.494;2023-04-24T09:28:53;10.32;;;5.88;;
33184;SDS011;19550;42.872;25.494;2023-04-24T09:31:19;6.18;;;4.97;;
33184;SDS011;19550;42.872;25.494;2023-04-24T09:33:53;11.82;;;5.28;;
33184;SDS011;19550;42.872;25.494;2023-04-24T09:36:26;10.52;;;5.13;;
33184;SDS011;19550;42.872;25.494;2023-04-24T09:38:58;12.85;;;4.93;;
33184;SDS011;19550;42.872;25.494;2023-04-24T09:41:26;7.15;;;4.57;;
33184;SDS011;19550;42.872;25.494;2023-04-24T09:43:53;9.55;;;5.57;;
33184;SDS011;19550;42.872;25.494;2023-04-24T09:46:21;14.63;;;7.18;;
33184;SDS011;19550;42.872;25.494;2023-04-24T09:48:55;14.65;;;7.88;;
33184;SDS011;19550;42.872;25.494;2023-04-24T09:51:32;16.85;;;7.40;;
33184;SDS011;19550;42.872;25.494;2023-04-24T09:54:01;16.20;;;7.90;;
33184;SDS011;19550;42.872;25.494;2023-04-24T09:56:29;9.02;;;5.32;;
33184;SDS011;19550;42.872;25.494;2023-04-24T09:59:04;8.95;;;5.00;;
33184;SDS011;19550;42.872;25.494;2023-04-24T10:01:31;9.95;;;4.70;;
33184;SDS011;19550;42.872;25.494;2023-04-24T10:03:59;9.95;;;5.10;;
33184;SDS011;19550;42.872;25.494;2023-04-24T10:06:29;8.52;;;5.07;;
33184;SDS011;19550;42.872;25.494;2023-04-24T10:08:57;11.05;;;4.80;;
33184;SDS011;19550;42.872;25.494;2023-04-24T10:11:26;10.93;;;4.85;;
33184;SDS011;19550;42.872;25.494;2023-04-24T10:13:54;13.32;;;5.85;;
33184;SDS011;19550;42.872;25.494;2023-04-24T10:16:22;9.40;;;4.88;;
33184;SDS011;19550;42.872;25.494;2023-04-24T10:18:49;7.82;;;5.72;;
33184;SDS011;19550;42.872;25.494;2023-04-24T10:21:17;8.68;;;4.40;;
33184;SDS011;19550;42.872;25.494;2023-04-24T10:23:44;9.82;;;5.32;;
33184;SDS011;19550;42.872;25.494;2023-04-24T10:26:12;6.57;;;4.70;;
33184;SDS011;19550;42.872;25.494;2023-04-24T10:28:44;10.80;;;5.22;;
33184;SDS011;19550;42.872;25.494;2023-04-24T10:31:11;8.40;;;5.35;;
33184;SDS011;19550;42.872;25.494;2023-04-24T10:33:39;10.43;;;5.55;;
33184;SDS011;19550;42.872;25.494;2023-04-24T10:36:07;10.40;;;5.13;;
33184;SDS011;19550;42.872;25.494;2023-04-24T10:38:36;7.95;;;6.15;;
33184;SDS011;19550;42.872;25.494;2023-04-24T10:41:08;6.57;;;5.32;;
33184;SDS011;19550;42.872;25.494;2023-04-24T10:43:41;6.03;;;4.57;;
33184;SDS011;19550;42.872;25.494;2023-04-24T10:46:10;6.03;;;4.35;;
33184;SDS011;19550;42.872;25.494;2023-04-24T10:48:42;5.68;;;4.72;;
33184;SDS011;19550;42.872;25.494;2023-04-24T10:51:11;6.97;;;4.72;;
33184;SDS011;19550;42.872;25.494;2023-04-24T10:53:39;8.88;;;5.07;;
33184;SDS011;19550;42.872;25.494;2023-04-24T10:56:06;6.72;;;4.57;;
33184;SDS011;19550;42.872;25.494;2023-04-24T10:58:35;5.60;;;5.00;;
33184;SDS011;19550;42.872;25.494;2023-04-24T11:01:05;6.47;;;4.22;;
33184;SDS011;19550;42.872;25.494;2023-04-24T11:03:34;6.30;;;4.90;;
33184;SDS011;19550;42.872;25.494;2023-04-24T11:06:02;9.23;;;4.80;;
33184;SDS011;19550;42.872;25.494;2023-04-24T11:08:30;12.90;;;6.07;;
33184;SDS011;19550;42.872;25.494;2023-04-24T11:11:00;13.27;;;5.97;;
33184;SDS011;19550;42.872;25.494;2023-04-24T11:16:26;9.60;;;4.95;;
33184;SDS011;19550;42.872;25.494;2023-04-24T11:19:01;8.30;;;4.85;;
33184;SDS011;19550;42.872;25.494;2023-04-24T11:21:31;10.57;;;5.90;;
33184;SDS011;19550;42.872;25.494;2023-04-24T11:23:58;11.48;;;5.32;;
33184;SDS011;19550;42.872;25.494;2023-04-24T11:26:45;6.05;;;5.43;;
33184;SDS011;19550;42.872;25.494;2023-04-24T11:29:12;9.55;;;5.10;;
33184;SDS011;19550;42.872;25.494;2023-04-24T11:31:39;6.90;;;4.85;;
33184;SDS011;19550;42.872;25.494;2023-04-24T11:34:12;8.43;;;4.68;;
33184;SDS011;19550;42.872;25.494;2023-04-24T11:36:40;11.35;;;4.97;;
33184;SDS011;19550;42.872;25.494;2023-04-24T11:39:08;7.20;;;4.60;;
33184;SDS011;19550;42.872;25.494;2023-04-24T11:41:36;8.77;;;4.80;;
33184;SDS011;19550;42.872;25.494;2023-04-24T11:44:05;8.40;;;4.90;;
33184;SDS011;19550;42.872;25.494;2023-04-24T11:49:00;8.30;;;4.85;;
33184;SDS011;19550;42.872;25.494;2023-04-24T11:51:28;9.00;;;5.13;;
33184;SDS011;19550;42.872;25.494;2023-04-24T11:53:55;5.78;;;4.40;;
33184;SDS011;19550;42.872;25.494;2023-04-24T11:56:22;10.60;;;5.30;;
33184;SDS011;19550;42.872;25.494;2023-04-24T11:58:51;8.10;;;5.40;;
33184;SDS011;19550;42.872;25.494;2023-04-24T12:01:19;11.82;;;5.63;;
33184;SDS011;19550;42.872;25.494;2023-04-24T12:03:47;10.35;;;5.40;;
33184;SDS011;19550;42.872;25.494;2023-04-24T12:06:16;7.57;;;5.17;;
33184;SDS011;19550;42.872;25.494;2023-04-24T12:08:47;8.32;;;5.20;;
33184;SDS011;19550;42.872;25.494;2023-04-24T12:11:15;7.90;;;5.20;;
33184;SDS011;19550;42.872;25.494;2023-04-24T12:13:45;9.70;;;5.32;;
33184;SDS011;19550;42.872;25.494;2023-04-24T12:16:12;8.85;;;5.57;;
33184;SDS011;19550;42.872;25.494;2023-04-24T12:18:43;6.20;;;5.60;;
33184;SDS011;19550;42.872;25.494;2023-04-24T12:21:17;5.85;;;5.03;;
33184;SDS011;19550;42.872;25.494;2023-04-24T12:23:44;11.18;;;5.20;;
33184;SDS011;19550;42.872;25.494;2023-04-24T12:26:14;6.32;;;5.30;;
33184;SDS011;19550;42.872;25.494;2023-04-24T12:28:42;5.68;;;4.75;;
33184;SDS011;19550;42.872;25.494;2023-04-24T12:31:12;9.95;;;5.30;;
33184;SDS011;19550;42.872;25.494;2023-04-24T12:33:39;6.60;;;4.72;;
33184;SDS011;19550;42.872;25.494;2023-04-24T12:36:06;5.25;;;4.75;;
33184;SDS011;19550;42.872;25.494;2023-04-24T12:38:32;7.68;;;5.30;;
33184;SDS011;19550;42.872;25.494;2023-04-24T12:41:05;6.70;;;5.95;;
33184;SDS011;19550;42.872;25.494;2023-04-24T12:43:35;6.78;;;4.90;;
33184;SDS011;19550;42.872;25.494;2023-04-24T12:46:02;7.90;;;4.50;;
33184;SDS011;19550;42.872;25.494;2023-04-24T12:48:29;10.18;;;4.43;;
33184;SDS011;19550;42.872;25.494;2023-04-24T12:50:57;8.35;;;4.78;;
33184;SDS011;19550;42.872;25.494;2023-04-24T12:53:26;8.68;;;4.53;;
33184;SDS011;19550;42.872;25.494;2023-04-24T12:55:54;9.25;;;4.50;;
33184;SDS011;19550;42.872;25.494;2023-04-24T12:58:21;7.85;;;4.95;;
33184;SDS011;19550;42.872;25.494;2023-04-24T13:00:52;9.38;;;5.38;;
33184;SDS011;19550;42.872;25.494;2023-04-24T13:03:19;10.15;;;4.63;;
33184;SDS011;19550;42.872;25.494;2023-04-24T13:05:47;7.60;;;5.00;;
33184;SDS011;19550;42.872;25.494;2023-04-24T13:08:14;8.98;;;5.10;;
33184;SDS011;19550;42.872;25.494;2023-04-24T13:10:41;7.50;;;4.85;;
33184;SDS011;19550;42.872;25.494;2023-04-24T13:13:08;10.77;;;6.30;;
33184;SDS011;19550;42.872;25.494;2023-04-24T13:15:35;8.95;;;4.93;;
33184;SDS011;19550;42.872;25.494;2023-04-24T13:18:03;8.60;;;5.07;;
33184;SDS011;19550;42.872;25.494;2023-04-24T13:20:30;10.18;;;5.47;;
33184;SDS011;19550;42.872;25.494;2023-04-24T13:22:57;8.38;;;5.03;;
33184;SDS011;19550;42.872;25.494;2023-04-24T13:25:24;14.23;;;4.65;;
33184;SDS011;19550;42.872;25.494;2023-04-24T13:27:52;14.13;;;5.78;;
33184;SDS011;19550;42.872;25.494;2023-04-24T13:30:18;8.35;;;5.15;;
33184;SDS011;19550;42.872;25.494;2023-04-24T13:32:45;10.82;;;5.32;;
33184;SDS011;19550;42.872;25.494;2023-04-24T13:35:14;8.32;;;5.55;;
33184;SDS011;19550;42.872;25.494;2023-04-24T13:37:40;15.43;;;6.15;;
33184;SDS011;19550;42.872;25.494;2023-04-24T13:40:08;10.95;;;5.70;;
33184;SDS011;19550;42.872;25.494;2023-04-24T13:42:35;10.48;;;5.90;;
33184;SDS011;19550;42.872;25.494;2023-04-24T13:45:02;9.25;;;5.68;;
33184;SDS011;19550;42.872;25.494;2023-04-24T13:47:30;8.90;;;5.80;;
33184;SDS011;19550;42.872;25.494;2023-04-24T13:49:57;7.80;;;5.88;;
33184;SDS011;19550;42.872;25.494;2023-04-24T13:52:25;7.63;;;6.13;;
33184;SDS011;19550;42.872;25.494;2023-04-24T13:54:52;9.52;;;5.88;;
33184;SDS011;19550;42.872;25.494;2023-04-24T13:57:18;9.40;;;6.38;;
33184;SDS011;19550;42.872;25.494;2023-04-24T13:59:45;10.48;;;6.13;;
33184;SDS011;19550;42.872;25.494;2023-04-24T14:02:12;13.10;;;6.70;;
33184;SDS011;19550;42.872;25.494;2023-04-24T14:04:39;9.93;;;6.72;;
33184;SDS011;19550;42.872;25.494;2023-04-24T14:07:06;12.77;;;6.25;;
33184;SDS011;19550;42.872;25.494;2023-04-24T14:09:34;17.20;;;6.72;;
33184;SDS011;19550;42.872;25.494;2023-04-24T14:12:01;10.00;;;6.82;;
33184;SDS011;19550;42.872;25.494;2023-04-24T14:14:28;18.23;;;6.72;;
33184;SDS011;19550;42.872;25.494;2023-04-24T14:16:56;15.23;;;6.72;;
33184;SDS011;19550;42.872;25.494;2023-04-24T14:19:23;8.98;;;6.55;;
33184;SDS011;19550;42.872;25.494;2023-04-24T14:21:50;8.70;;;6.13;;
33184;SDS011;19550;42.872;25.494;2023-04-24T14:24:17;16.15;;;8.75;;
33184;SDS011;19550;42.872;25.494;2023-04-24T14:26:45;13.63;;;7.28;;
33184;SDS011;19550;42.872;25.494;2023-04-24T14:29:12;8.50;;;6.60;;
33184;SDS011;19550;42.872;25.494;2023-04-24T14:31:38;14.18;;;7.13;;
33184;SDS011;19550;42.872;25.494;2023-04-24T14:34:05;9.35;;;6.63;;